createdAt,value
2022-11-29T00:01:42.157Z,11.10
2022-11-29T00:04:12.415Z,11.10
2022-11-29T00:06:42.033Z,11.00
2022-11-29T00:09:13.653Z,11.00
2022-11-29T00:12:01.820Z,11.10
2022-11-29T00:14:30.706Z,11.00
2022-11-29T00:17:02.251Z,11.00
2022-11-29T00:19:31.256Z,11.00
2022-11-29T00:22:01.416Z,11.00
2022-11-29T00:24:31.641Z,11.00
2022-11-29T00:27:00.651Z,11.00
2022-11-29T00:29:30.169Z,11.00
2022-11-29T00:31:58.395Z,11.00
2022-11-29T00:34:26.597Z,11.00
2022-11-29T00:36:54.760Z,11.00
2022-11-29T00:39:24.588Z,11.00
2022-11-29T00:41:52.803Z,11.00
2022-11-29T00:44:21.367Z,11.00
2022-11-29T00:46:50.299Z,11.00
2022-11-29T00:49:18.827Z,10.90
2022-11-29T00:51:47.625Z,11.00
2022-11-29T00:54:16.295Z,11.00
2022-11-29T00:56:45.837Z,11.00
2022-11-29T00:59:14.097Z,10.90
2022-11-29T01:01:42.379Z,11.00
2022-11-29T01:04:10.546Z,11.00
2022-11-29T01:06:38.859Z,11.00
2022-11-29T01:09:07.099Z,11.00
2022-11-29T01:11:35.880Z,11.00
2022-11-29T01:14:06.145Z,11.00
2022-11-29T01:16:34.764Z,10.90
2022-11-29T01:19:03.968Z,10.90
2022-11-29T01:21:32.293Z,10.90
2022-11-29T01:24:01.636Z,10.90
2022-11-29T01:26:31.237Z,10.90
2022-11-29T01:29:00.172Z,10.90
2022-11-29T01:31:32.650Z,10.90
2022-11-29T01:34:03.318Z,10.90
2022-11-29T01:36:32.277Z,10.90
2022-11-29T01:39:00.976Z,10.90
2022-11-29T01:41:31.245Z,10.90
2022-11-29T01:44:02.805Z,10.90
2022-11-29T01:46:34.948Z,10.90
2022-11-29T01:49:09.879Z,10.90
2022-11-29T01:51:41.147Z,11.00
2022-11-29T01:54:11.181Z,11.00
2022-11-29T01:56:39.985Z,11.00
2022-11-29T01:59:11.807Z,11.40
2022-11-29T02:01:41.540Z,11.00
2022-11-29T02:04:10.294Z,11.00
2022-11-29T02:06:39.873Z,11.00
2022-11-29T02:09:19.589Z,11.00
2022-11-29T02:12:03.846Z,11.00
2022-11-29T02:14:50.280Z,11.00
2022-11-29T02:17:30.475Z,11.00
2022-11-29T02:20:29.565Z,11.00
2022-11-29T02:23:05.577Z,11.00
2022-11-29T02:25:49.820Z,11.00
2022-11-29T02:28:42.924Z,11.00
2022-11-29T02:31:40.058Z,11.00
2022-11-29T02:34:24.981Z,11.00
2022-11-29T02:37:12.490Z,11.00
2022-11-29T02:40:23.876Z,11.00
2022-11-29T02:43:15.918Z,11.00
2022-11-29T02:46:08.620Z,11.00
2022-11-29T02:48:56.633Z,11.00
2022-11-29T02:51:32.274Z,11.00
2022-11-29T02:54:07.484Z,11.00
2022-11-29T02:56:44.145Z,11.00
2022-11-29T02:59:19.419Z,11.00
2022-11-29T03:01:55.042Z,11.00
2022-11-29T03:04:32.341Z,11.00
2022-11-29T03:07:08.584Z,11.00
2022-11-29T03:09:42.835Z,11.10
2022-11-29T03:12:19.696Z,11.00
2022-11-29T03:14:58.501Z,11.00
2022-11-29T03:17:39.602Z,11.00
2022-11-29T03:20:22.019Z,11.00
2022-11-29T03:23:08.327Z,11.00
2022-11-29T03:25:41.387Z,11.30
2022-11-29T03:28:16.115Z,11.00
2022-11-29T03:30:54.648Z,11.00
2022-11-29T03:33:29.202Z,11.00
2022-11-29T03:36:05.561Z,11.00
2022-11-29T03:38:41.344Z,11.00
2022-11-29T03:41:21.511Z,11.00
2022-11-29T03:43:56.168Z,11.00
2022-11-29T03:46:32.200Z,11.00
2022-11-29T03:49:05.156Z,11.00
2022-11-29T03:51:47.784Z,11.00
2022-11-29T03:54:23.263Z,11.00
2022-11-29T03:56:51.852Z,11.00
2022-11-29T03:59:39.045Z,11.00
2022-11-29T04:02:43.620Z,11.00
2022-11-29T04:05:55.564Z,11.00
2022-11-29T04:08:56.277Z,11.00
2022-11-29T04:12:09.566Z,11.00
2022-11-29T04:15:23.726Z,11.00
2022-11-29T04:18:36.381Z,10.90
2022-11-29T04:21:27.331Z,10.90
2022-11-29T04:24:31.079Z,10.90
2022-11-29T04:27:25.458Z,10.90
2022-11-29T04:30:07.754Z,10.90
2022-11-29T04:33:05.632Z,10.90
2022-11-29T04:35:52.658Z,10.90
2022-11-29T04:38:57.497Z,10.50
2022-11-29T04:41:39.919Z,10.80
2022-11-29T04:44:38.420Z,10.80
2022-11-29T04:47:29.721Z,10.80
2022-11-29T04:50:13.945Z,10.80
2022-11-29T04:53:07.744Z,10.80
2022-11-29T04:55:44.859Z,10.80
2022-11-29T04:58:22.683Z,10.80
2022-11-29T05:00:58.387Z,10.80
2022-11-29T05:03:39.871Z,10.80
2022-11-29T05:06:20.188Z,10.70
2022-11-29T05:09:02.323Z,10.70
2022-11-29T05:11:57.292Z,10.70
2022-11-29T05:14:36.374Z,10.70
2022-11-29T05:17:22.419Z,10.70
2022-11-29T05:20:22.772Z,10.70
2022-11-29T05:23:05.966Z,10.70
2022-11-29T05:25:43.583Z,10.80
2022-11-29T05:28:21.267Z,10.80
2022-11-29T05:31:20.557Z,10.80
2022-11-29T05:34:19.712Z,10.80
2022-11-29T05:36:58.524Z,10.80
2022-11-29T05:39:47.615Z,10.80
2022-11-29T05:42:40.126Z,10.90
2022-11-29T05:45:15.799Z,10.90
2022-11-29T05:47:51.341Z,10.90
2022-11-29T05:50:25.350Z,10.90
2022-11-29T05:52:58.240Z,10.90
2022-11-29T05:55:35.859Z,10.90
2022-11-29T05:58:12.045Z,10.90
2022-11-29T06:00:48.936Z,10.90
2022-11-29T06:03:22.932Z,10.90
2022-11-29T06:05:56.728Z,10.90
2022-11-29T06:08:37.790Z,10.90
2022-11-29T06:11:14.940Z,10.90
2022-11-29T06:13:54.614Z,10.90
2022-11-29T06:16:41.269Z,10.90
2022-11-29T06:19:33.603Z,11.00
2022-11-29T06:22:14.956Z,10.90
2022-11-29T06:24:56.626Z,10.90
2022-11-29T06:27:39.781Z,10.90
2022-11-29T06:30:10.824Z,10.90
2022-11-29T06:32:48.786Z,10.90
2022-11-29T06:35:35.439Z,10.90
2022-11-29T06:38:10.684Z,11.00
2022-11-29T06:40:40.810Z,11.00
2022-11-29T06:43:09.585Z,11.00
2022-11-29T06:45:38.365Z,11.00
2022-11-29T06:48:10.923Z,11.00
2022-11-29T06:50:55.078Z,11.00
2022-11-29T06:53:29.320Z,11.00
2022-11-29T06:56:06.491Z,11.00
2022-11-29T06:58:44.249Z,11.00
2022-11-29T07:01:21.480Z,11.00
2022-11-29T07:04:26.565Z,11.00
2022-11-29T07:06:55.336Z,11.00
2022-11-29T07:09:29.612Z,11.00
2022-11-29T07:11:59.871Z,11.00
2022-11-29T07:14:28.753Z,11.00
2022-11-29T07:17:04.766Z,11.00
2022-11-29T07:19:41.746Z,11.10
2022-11-29T07:22:33.307Z,11.00
2022-11-29T07:25:09.247Z,11.00
2022-11-29T07:27:45.939Z,11.10
2022-11-29T07:30:19.995Z,11.00
2022-11-29T07:33:00.629Z,11.00
2022-11-29T07:35:39.917Z,11.10
2022-11-29T07:38:12.673Z,11.10
2022-11-29T07:40:50.087Z,11.10
2022-11-29T07:43:34.193Z,11.10
2022-11-29T07:46:02.766Z,11.10
2022-11-29T07:48:31.058Z,11.00
2022-11-29T07:50:59.288Z,11.10
2022-11-29T07:53:27.648Z,11.10
2022-11-29T07:55:56.213Z,11.10
2022-11-29T07:58:25.902Z,11.10
2022-11-29T08:00:54.094Z,11.10
2022-11-29T08:03:22.350Z,11.10
2022-11-29T08:05:50.681Z,11.10
2022-11-29T08:08:19.085Z,11.10
2022-11-29T08:10:47.684Z,11.10
2022-11-29T08:13:15.977Z,11.10
2022-11-29T08:15:49.604Z,11.10
2022-11-29T08:18:18.641Z,11.10
2022-11-29T08:20:47.176Z,11.00
2022-11-29T08:23:15.819Z,11.00
2022-11-29T08:25:45.345Z,11.00
2022-11-29T08:28:13.683Z,11.00
2022-11-29T08:30:41.890Z,11.00
2022-11-29T08:33:11.460Z,11.00
2022-11-29T08:35:40.037Z,11.00
2022-11-29T08:38:08.425Z,11.00
2022-11-29T08:40:36.699Z,11.00
2022-11-29T08:43:04.963Z,11.00
2022-11-29T08:45:33.398Z,11.00
2022-11-29T08:48:01.694Z,11.00
2022-11-29T08:50:31.228Z,11.00
2022-11-29T08:53:17.103Z,11.00
2022-11-29T08:55:46.655Z,11.00
2022-11-29T08:58:16.815Z,11.00
2022-11-29T09:00:47.175Z,11.00
2022-11-29T09:03:33.177Z,11.00
2022-11-29T09:06:12.230Z,10.90
2022-11-29T09:08:43.460Z,10.90
2022-11-29T09:11:13.518Z,10.90
2022-11-29T09:13:42.564Z,10.90
2022-11-29T09:16:13.137Z,10.90
2022-11-29T09:18:44.872Z,10.90
2022-11-29T09:21:19.062Z,10.90
2022-11-29T09:23:47.900Z,10.90
2022-11-29T09:26:19.225Z,10.90
2022-11-29T09:28:47.827Z,10.90
2022-11-29T09:31:17.529Z,10.90
2022-11-29T09:33:46.605Z,10.90
2022-11-29T09:36:15.280Z,10.80
2022-11-29T09:38:45.068Z,10.90
2022-11-29T09:41:31.016Z,10.80
2022-11-29T09:44:07.373Z,10.80
2022-11-29T09:46:45.561Z,10.90
2022-11-29T09:49:37.603Z,10.90
2022-11-29T09:52:10.686Z,10.90
2022-11-29T09:54:52.049Z,10.90
2022-11-29T09:57:23.286Z,10.90
2022-11-29T09:59:55.390Z,10.90
2022-11-29T10:02:31.922Z,10.90
2022-11-29T10:05:04.165Z,10.90
2022-11-29T10:07:39.402Z,10.90
2022-11-29T10:10:18.447Z,10.90
2022-11-29T10:12:51.690Z,10.90
2022-11-29T10:15:23.910Z,10.90
2022-11-29T10:17:56.454Z,11.00
2022-11-29T10:20:27.246Z,11.00
2022-11-29T10:22:58.833Z,11.00
2022-11-29T10:25:32.638Z,11.00
2022-11-29T10:28:01.453Z,11.00
2022-11-29T10:30:30.455Z,11.00
2022-11-29T10:33:01.394Z,11.00
2022-11-29T10:35:30.574Z,11.00
2022-11-29T10:40:57.488Z,11.00
2022-11-29T10:43:26.409Z,11.00
2022-11-29T10:45:57.079Z,11.00
2022-11-29T10:48:31.718Z,11.00
2022-11-29T10:51:00.991Z,11.10
2022-11-29T10:53:35.860Z,11.10
2022-11-29T10:56:08.079Z,11.10
2022-11-29T10:58:36.835Z,11.10
2022-11-29T11:01:07.694Z,11.10
2022-11-29T11:03:40.923Z,11.10
2022-11-29T11:06:12.795Z,11.10
2022-11-29T11:08:44.237Z,11.10
2022-11-29T11:11:15.306Z,11.10
2022-11-29T11:13:43.896Z,11.40
2022-11-29T11:16:18.322Z,11.10
2022-11-29T11:18:48.681Z,11.10
2022-11-29T11:21:20.259Z,11.10
2022-11-29T11:23:55.399Z,11.10
2022-11-29T11:26:26.620Z,11.10
2022-11-29T11:29:00.157Z,11.20
2022-11-29T11:31:31.923Z,11.20
2022-11-29T11:34:29.194Z,11.10
2022-11-29T11:37:22.397Z,11.10
2022-11-29T11:39:52.479Z,11.10
2022-11-29T11:42:39.559Z,11.10
2022-11-29T11:45:32.724Z,11.10
2022-11-29T11:48:04.952Z,11.10
2022-11-29T11:50:35.607Z,11.10
2022-11-29T11:53:07.745Z,11.10
2022-11-29T11:55:39.695Z,11.10
2022-11-29T11:58:22.696Z,11.10
2022-11-29T12:01:08.639Z,11.10
2022-11-29T12:03:49.839Z,11.10
2022-11-29T12:06:36.671Z,11.10
2022-11-29T12:09:10.957Z,11.10
2022-11-29T12:11:44.729Z,11.10
2022-11-29T12:14:24.104Z,11.10
2022-11-29T12:17:00.777Z,11.10
2022-11-29T12:19:36.046Z,11.10
2022-11-29T12:22:10.239Z,11.10
2022-11-29T12:24:42.658Z,11.10
2022-11-29T12:27:14.874Z,11.10
2022-11-29T12:29:44.640Z,11.10
2022-11-29T12:32:40.226Z,11.00
2022-11-29T12:35:35.941Z,11.00
2022-11-29T12:38:12.886Z,11.00
2022-11-29T12:40:51.875Z,11.00
2022-11-29T12:43:28.623Z,11.00
2022-11-29T12:46:10.033Z,11.00
2022-11-29T12:48:46.286Z,11.00
2022-11-29T12:51:22.503Z,11.00
2022-11-29T12:54:23.754Z,11.00
2022-11-29T12:57:01.090Z,10.90
2022-11-29T12:59:41.960Z,10.90
2022-11-29T13:02:34.098Z,10.90
2022-11-29T13:05:10.728Z,10.90
2022-11-29T13:07:54.102Z,10.90
2022-11-29T13:10:43.271Z,10.90
2022-11-29T13:13:20.885Z,10.90
2022-11-29T13:15:55.879Z,10.80
2022-11-29T13:18:35.846Z,10.80
2022-11-29T13:21:13.269Z,10.80
2022-11-29T13:26:39.843Z,10.80
2022-11-29T13:29:13.661Z,10.80
2022-11-29T13:31:42.727Z,10.90
2022-11-29T13:34:16.845Z,10.90
2022-11-29T13:37:01.831Z,10.80
2022-11-29T13:39:42.663Z,10.80
2022-11-29T13:42:19.274Z,10.80
2022-11-29T13:44:58.039Z,10.90
2022-11-29T13:47:26.501Z,10.80
2022-11-29T13:49:58.777Z,10.80
2022-11-29T13:52:43.247Z,10.80
2022-11-29T13:55:29.170Z,10.80
2022-11-29T13:58:20.434Z,10.80
2022-11-29T14:00:52.135Z,10.80
2022-11-29T14:03:28.734Z,10.90
2022-11-29T14:06:11.514Z,10.80
2022-11-29T14:11:37.766Z,10.90
2022-11-29T14:14:09.922Z,10.90
2022-11-29T14:16:45.787Z,10.90
2022-11-29T14:19:23.885Z,10.90
2022-11-29T14:22:26.509Z,10.90
2022-11-29T14:25:11.896Z,10.90
2022-11-29T14:27:58.922Z,10.90
2022-11-29T14:30:45.722Z,10.90
2022-11-29T14:33:30.029Z,10.80
2022-11-29T14:36:05.735Z,10.80
2022-11-29T14:38:44.904Z,10.80
2022-11-29T14:41:26.859Z,10.80
2022-11-29T14:44:17.246Z,10.80
2022-11-29T14:46:46.890Z,10.70
2022-11-29T14:49:23.983Z,10.70
2022-11-29T14:52:21.581Z,10.70
2022-11-29T14:55:04.294Z,10.80
2022-11-29T14:58:15.079Z,10.70
2022-11-29T15:01:09.524Z,10.70
2022-11-29T15:03:47.350Z,10.80
2022-11-29T15:06:24.197Z,10.80
2022-11-29T15:08:58.556Z,10.80
2022-11-29T15:11:36.605Z,10.80
2022-11-29T15:14:07.507Z,10.80
2022-11-29T15:16:56.679Z,10.80
2022-11-29T15:19:52.821Z,10.80
2022-11-29T15:22:23.274Z,10.70
2022-11-29T15:24:53.988Z,10.70
2022-11-29T15:27:24.898Z,10.70
2022-11-29T15:29:53.407Z,10.70
2022-11-29T15:32:25.936Z,10.70
2022-11-29T15:34:56.327Z,10.70
2022-11-29T15:37:39.196Z,10.70
2022-11-29T15:40:11.913Z,10.70
2022-11-29T15:42:45.033Z,10.70
2022-11-29T15:45:28.904Z,10.70
2022-11-29T15:48:12.512Z,10.70
2022-11-29T15:50:47.587Z,10.70
2022-11-29T15:53:20.461Z,10.70
2022-11-29T15:55:50.827Z,10.70
2022-11-29T15:58:21.694Z,10.70
2022-11-29T16:00:51.193Z,10.70
2022-11-29T16:03:26.416Z,10.70
2022-11-29T16:06:02.673Z,10.70
2022-11-29T16:08:34.422Z,10.70
2022-11-29T16:11:04.139Z,10.70
2022-11-29T16:13:37.830Z,10.70
2022-11-29T16:16:14.262Z,10.70
2022-11-29T16:18:44.762Z,10.70
2022-11-29T16:21:25.526Z,10.70
2022-11-29T16:23:54.316Z,10.80
2022-11-29T16:26:27.636Z,10.70
2022-11-29T16:28:58.625Z,10.80
2022-11-29T16:31:34.016Z,10.70
2022-11-29T16:34:10.116Z,10.80
2022-11-29T16:36:38.629Z,10.80
2022-11-29T16:39:16.575Z,10.80
2022-11-29T16:41:45.323Z,10.80
2022-11-29T16:44:55.120Z,10.80
2022-11-29T16:47:24.810Z,10.80
2022-11-29T16:50:14.092Z,10.80
2022-11-29T16:52:42.475Z,10.80
2022-11-29T16:55:10.792Z,10.80
2022-11-29T16:57:40.667Z,10.80
2022-11-29T17:00:25.019Z,10.80
2022-11-29T17:02:53.356Z,10.80
2022-11-29T17:05:21.717Z,10.80
2022-11-29T17:07:50.320Z,10.80
2022-11-29T17:10:23.975Z,10.80
2022-11-29T17:12:52.855Z,10.80
2022-11-29T17:15:22.710Z,10.80
2022-11-29T17:17:51.283Z,10.80
2022-11-29T17:20:19.841Z,10.80
2022-11-29T17:22:48.533Z,10.80
2022-11-29T17:25:17.115Z,10.80
2022-11-29T17:27:45.782Z,10.80
2022-11-29T17:30:15.211Z,10.80
2022-11-29T17:32:44.993Z,10.80
2022-11-29T17:35:13.383Z,10.80
2022-11-29T17:37:41.586Z,10.70
2022-11-29T17:40:10.724Z,10.80
2022-11-29T17:42:39.225Z,10.80
2022-11-29T17:45:08.380Z,10.80
2022-11-29T17:47:36.731Z,10.70
2022-11-29T17:50:07.889Z,10.70
2022-11-29T17:52:37.040Z,10.70
2022-11-29T17:55:06.050Z,10.70
2022-11-29T17:57:34.749Z,10.70
2022-11-29T18:00:06.206Z,10.70
2022-11-29T18:02:34.814Z,10.70
2022-11-29T18:05:03.293Z,10.70
2022-11-29T18:07:33.095Z,10.70
2022-11-29T18:10:01.569Z,10.70
2022-11-29T18:12:29.973Z,10.70
2022-11-29T18:14:58.407Z,10.60
2022-11-29T18:17:26.681Z,10.60
2022-11-29T18:19:54.912Z,10.60
2022-11-29T18:22:23.426Z,10.80
2022-11-29T18:25:05.395Z,10.60
2022-11-29T18:27:41.480Z,10.60
2022-11-29T18:30:11.292Z,10.60
2022-11-29T18:32:39.675Z,10.60
2022-11-29T18:35:09.356Z,10.60
2022-11-29T18:38:06.737Z,10.60
2022-11-29T18:40:27.714Z,10.60
2022-11-29T18:42:56.072Z,10.50
2022-11-29T18:45:24.792Z,10.50
2022-11-29T18:47:53.152Z,10.50
2022-11-29T18:50:21.593Z,10.50
2022-11-29T18:52:51.503Z,10.50
2022-11-29T18:55:19.776Z,10.50
2022-11-29T18:57:51.196Z,10.50
2022-11-29T19:00:20.127Z,10.50
2022-11-29T19:02:48.594Z,10.50
2022-11-29T19:05:17.259Z,10.50
2022-11-29T19:07:45.668Z,10.50
2022-11-29T19:10:14.168Z,10.40
2022-11-29T19:12:42.420Z,10.40
2022-11-29T19:15:12.651Z,10.40
2022-11-29T19:17:43.395Z,10.40
2022-11-29T19:20:13.413Z,10.40
2022-11-29T19:22:42.064Z,10.40
2022-11-29T19:25:10.784Z,10.40
2022-11-29T19:27:40.191Z,10.40
2022-11-29T19:30:10.016Z,10.40
2022-11-29T19:32:39.754Z,10.40
2022-11-29T19:35:08.932Z,10.40
2022-11-29T19:37:37.269Z,10.40
2022-11-29T19:40:06.543Z,10.40
2022-11-29T19:42:34.904Z,10.40
2022-11-29T19:45:16.857Z,10.40
2022-11-29T19:47:47.297Z,10.40
2022-11-29T19:50:15.844Z,10.40
2022-11-29T19:52:44.207Z,10.40
2022-11-29T19:55:12.554Z,10.40
2022-11-29T19:57:40.910Z,10.40
2022-11-29T20:00:10.398Z,10.40
2022-11-29T20:02:43.084Z,10.10
2022-11-29T20:05:14.202Z,10.40
2022-11-29T20:07:42.405Z,10.40
2022-11-29T20:10:11.628Z,10.40
2022-11-29T20:12:40.097Z,10.40
2022-11-29T20:15:09.832Z,10.40
2022-11-29T20:17:38.229Z,10.40
2022-11-29T20:20:07.745Z,10.40
2022-11-29T20:22:37.790Z,10.40
2022-11-29T20:25:07.267Z,10.40
2022-11-29T20:27:35.975Z,10.40
2022-11-29T20:30:04.828Z,10.40
2022-11-29T20:32:33.379Z,10.40
2022-11-29T20:35:02.553Z,10.40
2022-11-29T20:37:49.362Z,10.40
2022-11-29T20:40:23.919Z,10.40
2022-11-29T20:43:04.444Z,10.40
2022-11-29T20:45:33.608Z,10.40
2022-11-29T20:48:11.291Z,10.40
2022-11-29T20:50:40.470Z,10.40
2022-11-29T20:53:23.250Z,10.40
2022-11-29T20:55:51.632Z,10.40
2022-11-29T20:58:20.267Z,10.40
2022-11-29T21:00:48.877Z,10.40
2022-11-29T21:03:18.939Z,10.40
2022-11-29T21:05:48.496Z,10.40
2022-11-29T21:08:21.014Z,10.40
2022-11-29T21:10:52.708Z,10.40
2022-11-29T21:13:23.225Z,10.40
2022-11-29T21:15:52.145Z,10.50
2022-11-29T21:18:25.646Z,10.40
2022-11-29T21:21:09.007Z,10.40
2022-11-29T21:23:49.310Z,10.40
2022-11-29T21:26:21.494Z,10.50
2022-11-29T21:28:58.753Z,10.40
2022-11-29T21:31:27.803Z,10.40
2022-11-29T21:33:56.640Z,10.40
2022-11-29T21:36:25.040Z,10.30
2022-11-29T21:38:55.476Z,10.30
2022-11-29T21:41:24.263Z,10.30
2022-11-29T21:44:06.567Z,10.30
2022-11-29T21:46:36.430Z,10.30
2022-11-29T21:49:05.473Z,10.30
2022-11-29T21:51:33.788Z,10.30
2022-11-29T21:54:04.220Z,10.30
2022-11-29T21:56:32.541Z,10.30
2022-11-29T21:59:00.807Z,10.30
2022-11-29T22:01:29.555Z,10.30
2022-11-29T22:03:58.057Z,10.20
2022-11-29T22:06:27.780Z,10.20
2022-11-29T22:08:56.199Z,10.20
2022-11-29T22:11:32.028Z,10.20
2022-11-29T22:14:18.414Z,10.10
2022-11-29T22:16:48.817Z,10.10
2022-11-29T22:19:18.848Z,10.10
2022-11-29T22:21:49.471Z,10.10
2022-11-29T22:24:19.251Z,10.10
2022-11-29T22:26:50.183Z,10.10
2022-11-29T22:29:18.846Z,10.10
2022-11-29T22:31:48.381Z,10.10
2022-11-29T22:34:16.830Z,10.10
2022-11-29T22:36:45.209Z,10.10
2022-11-29T22:39:13.746Z,10.10
2022-11-29T22:41:42.649Z,10.10
2022-11-29T22:44:12.359Z,10.10
2022-11-29T22:46:41.552Z,10.10
2022-11-29T22:49:10.644Z,10.10
2022-11-29T22:51:39.777Z,10.00
2022-11-29T22:54:09.678Z,10.10
2022-11-29T22:56:40.742Z,10.10
2022-11-29T22:59:09.681Z,10.00
2022-11-29T23:01:41.056Z,10.00
2022-11-29T23:04:11.609Z,10.00
2022-11-29T23:06:42.805Z,10.00
2022-11-29T23:09:15.804Z,10.00
2022-11-29T23:11:45.597Z,9.90
2022-11-29T23:14:14.425Z,9.90
2022-11-29T23:16:44.320Z,9.90
2022-11-29T23:19:12.862Z,9.90
2022-11-29T23:21:44.720Z,9.90
2022-11-29T23:24:13.723Z,9.90
2022-11-29T23:26:45.104Z,9.90
2022-11-29T23:29:16.233Z,9.90
2022-11-29T23:31:46.652Z,9.90
2022-11-29T23:34:15.274Z,9.90
2022-11-29T23:36:47.051Z,9.90
2022-11-29T23:39:19.599Z,9.90
2022-11-29T23:41:47.896Z,10.00
2022-11-29T23:44:16.150Z,9.80
2022-11-29T23:46:45.669Z,9.80
2022-11-29T23:49:14.010Z,9.90
2022-11-29T23:51:42.751Z,9.80
2022-11-29T23:54:11.033Z,10.00
2022-11-29T23:56:39.354Z,9.80
2022-11-29T23:59:07.799Z,9.80
